createdAt,value
2019-03-25T00:00:28.425Z,3.93
2019-03-25T00:01:28.410Z,3.96
2019-03-25T00:02:28.395Z,3.91
2019-03-25T00:03:28.383Z,3.96
2019-03-25T00:04:28.376Z,4.06
2019-03-25T00:05:28.351Z,4
2019-03-25T00:06:28.336Z,4.09
2019-03-25T00:07:29.986Z,4.12
2019-03-25T00:08:28.311Z,4.09
2019-03-25T00:10:28.277Z,4.23
2019-03-25T00:11:28.271Z,4.27
2019-03-25T00:13:28.233Z,4.36
2019-03-25T00:15:28.204Z,4.47
2019-03-25T00:16:28.194Z,4.54
2019-03-25T00:18:28.163Z,4.54
2019-03-25T00:20:28.133Z,4.7
2019-03-25T00:21:28.121Z,4.67
2019-03-25T00:22:28.101Z,4.84
2019-03-25T00:23:27.848Z,4.67
2019-03-25T00:24:40.644Z,4.73
2019-03-25T00:25:28.058Z,4.75
2019-03-25T00:26:28.050Z,4.73
2019-03-25T00:27:28.031Z,4.86
2019-03-25T00:29:28.009Z,4.96
2019-03-25T00:30:27.989Z,5.02
2019-03-25T00:31:27.973Z,4.97
2019-03-25T00:32:27.959Z,4.99
2019-03-25T00:33:27.944Z,5.03
2019-03-25T00:34:27.940Z,5.04
2019-03-25T00:35:27.926Z,5.02
2019-03-25T00:36:27.910Z,5.12
2019-03-25T00:37:27.916Z,5.02
2019-03-25T00:38:27.875Z,5.06
2019-03-25T00:39:27.864Z,5.09
2019-03-25T00:40:27.853Z,5.06
2019-03-25T00:41:27.836Z,5.03
2019-03-25T00:42:27.819Z,5.1
2019-03-25T00:43:27.566Z,5.13
2019-03-25T00:44:27.540Z,5.1
2019-03-25T00:45:27.778Z,5.07
2019-03-25T00:46:27.764Z,5.15
2019-03-25T00:47:27.752Z,5.13
2019-03-25T00:48:27.732Z,5.07
2019-03-25T00:49:27.756Z,5.12
2019-03-25T00:50:27.712Z,5.18
2019-03-25T00:51:27.697Z,5.06
2019-03-25T00:52:27.683Z,5.1
2019-03-25T00:53:27.666Z,5.07
2019-03-25T00:54:27.655Z,5.09
2019-03-25T00:55:27.637Z,5.03
2019-03-25T00:56:27.660Z,5
2019-03-25T00:57:27.616Z,4.94
2019-03-25T00:58:27.593Z,4.88
2019-03-25T00:59:27.635Z,4.88
2019-03-25T01:00:27.567Z,4.88
2019-03-25T01:01:27.558Z,4.8
2019-03-25T01:02:27.537Z,4.8
2019-03-25T01:03:27.529Z,4.67
2019-03-25T01:04:27.524Z,4.73
2019-03-25T01:05:27.497Z,4.59
2019-03-25T01:06:27.486Z,4.66
2019-03-25T01:07:27.471Z,4.59
2019-03-25T01:08:27.455Z,4.6
2019-03-25T01:09:27.438Z,4.55
2019-03-25T01:10:27.424Z,4.51
2019-03-25T01:11:27.413Z,4.54
2019-03-25T01:12:27.403Z,4.48
2019-03-25T01:13:27.406Z,4.5
2019-03-25T01:14:27.373Z,4.48
2019-03-25T01:15:27.356Z,4.48
2019-03-25T01:16:27.341Z,4.51
2019-03-25T01:17:27.324Z,4.47
2019-03-25T01:18:27.316Z,4.45
2019-03-25T01:19:27.299Z,4.34
2019-03-25T01:20:27.621Z,4.5
2019-03-25T01:21:27.328Z,4.37
2019-03-25T01:22:27.255Z,4.48
2019-03-25T01:23:27.244Z,4.33
2019-03-25T01:24:27.224Z,4.36
2019-03-25T01:25:27.212Z,4.5
2019-03-25T01:26:27.195Z,4.55
2019-03-25T01:27:27.188Z,4.48
2019-03-25T01:28:27.170Z,4.51
2019-03-25T01:29:27.155Z,4.52
2019-03-25T01:30:27.139Z,4.6
2019-03-25T01:31:27.131Z,4.63
2019-03-25T01:32:27.114Z,4.66
2019-03-25T01:33:27.095Z,4.6
2019-03-25T01:34:27.084Z,4.8
2019-03-25T01:35:27.064Z,4.77
2019-03-25T01:36:27.053Z,4.73
2019-03-25T01:37:27.039Z,4.89
2019-03-25T01:38:27.023Z,4.92
2019-03-25T01:39:27.006Z,4.88
2019-03-25T01:40:26.999Z,4.94
2019-03-25T01:41:26.738Z,4.92
2019-03-25T01:42:26.969Z,5.03
2019-03-25T01:43:26.961Z,5
2019-03-25T01:44:26.944Z,5.04
2019-03-25T01:45:26.930Z,5.03
2019-03-25T01:46:26.912Z,5.04
2019-03-25T01:47:26.897Z,5.06
2019-03-25T01:48:26.882Z,5.06
2019-03-25T01:49:26.867Z,5.02
2019-03-25T01:50:26.856Z,5.09
2019-03-25T01:51:26.846Z,5.09
2019-03-25T01:52:26.824Z,5.12
2019-03-25T01:53:26.810Z,5.13
2019-03-25T01:54:26.806Z,5.15
2019-03-25T01:55:26.535Z,5.2
2019-03-25T01:56:26.775Z,5.13
2019-03-25T01:57:26.755Z,5.15
2019-03-25T01:58:26.744Z,5.21
2019-03-25T01:59:26.743Z,5.22
2019-03-25T02:00:26.715Z,5.22
2019-03-25T02:01:26.699Z,5.22
2019-03-25T02:02:26.727Z,5.22
2019-03-25T02:03:27.473Z,5.21
2019-03-25T02:04:26.657Z,5.35
2019-03-25T02:05:26.647Z,5.35
2019-03-25T02:06:26.633Z,5.21
2019-03-25T02:07:26.642Z,5.3
2019-03-25T02:08:26.670Z,5.31
2019-03-25T02:09:26.589Z,5.31
2019-03-25T02:10:26.575Z,5.28
2019-03-25T02:11:27.244Z,5.25
2019-03-25T02:12:26.548Z,5.35
2019-03-25T02:13:26.535Z,5.28
2019-03-25T02:14:26.520Z,5.27
2019-03-25T02:15:26.504Z,5.3
2019-03-25T02:16:26.491Z,5.33
2019-03-25T02:17:26.477Z,5.27
2019-03-25T02:18:26.462Z,5.35
2019-03-25T02:19:26.449Z,5.35
2019-03-25T02:20:31.367Z,5.38
2019-03-25T02:21:26.423Z,5.38
2019-03-25T02:22:26.485Z,5.36
2019-03-25T02:23:26.441Z,5.31
2019-03-25T02:24:26.381Z,5.39
2019-03-25T02:25:30.433Z,5.36
2019-03-25T02:26:26.357Z,5.42
2019-03-25T02:27:26.337Z,5.39
2019-03-25T02:28:26.327Z,5.42
2019-03-25T02:29:26.390Z,5.49
2019-03-25T02:30:26.053Z,5.49
2019-03-25T02:31:26.046Z,5.43
2019-03-25T02:32:26.287Z,5.42
2019-03-25T02:33:26.258Z,5.46
2019-03-25T02:34:26.257Z,5.51
2019-03-25T02:35:26.233Z,5.53
2019-03-25T02:36:26.215Z,5.56
2019-03-25T02:37:26.217Z,5.53
2019-03-25T02:38:26.195Z,5.48
2019-03-25T02:39:26.201Z,5.54
2019-03-25T02:40:26.183Z,5.54
2019-03-25T02:41:26.169Z,5.58
2019-03-25T02:42:26.142Z,5.57
2019-03-25T02:43:26.123Z,5.54
2019-03-25T02:44:26.137Z,5.61
2019-03-25T02:45:26.106Z,5.63
2019-03-25T02:46:26.087Z,5.63
2019-03-25T02:47:26.075Z,5.54
2019-03-25T02:48:26.071Z,5.53
2019-03-25T02:49:26.078Z,5.67
2019-03-25T02:50:26.026Z,5.64
2019-03-25T02:51:26.051Z,5.64
2019-03-25T02:52:26.002Z,5.64
2019-03-25T02:53:26.003Z,5.54
2019-03-25T02:54:25.980Z,5.67
2019-03-25T02:55:40.046Z,5.58
2019-03-25T02:56:25.964Z,5.63
2019-03-25T02:57:25.929Z,5.51
2019-03-25T02:58:26.004Z,5.57
2019-03-25T02:59:25.925Z,5.61
2019-03-25T03:00:25.891Z,5.58
2019-03-25T03:01:25.881Z,5.6
2019-03-25T03:02:25.890Z,5.43
2019-03-25T03:03:25.858Z,5.46
2019-03-25T03:04:25.970Z,5.49
2019-03-25T03:05:25.846Z,5.45
2019-03-25T03:06:25.816Z,5.3
2019-03-25T03:07:25.793Z,5.2
2019-03-25T03:08:25.793Z,5.21
2019-03-25T03:09:25.782Z,5.18
2019-03-25T03:10:25.752Z,5.15
2019-03-25T03:11:25.741Z,5.09
2019-03-25T03:12:25.735Z,5.15
2019-03-25T03:13:25.719Z,5.13
2019-03-25T03:14:25.716Z,5.15
2019-03-25T03:15:25.680Z,5.13
2019-03-25T03:16:25.684Z,5.06
2019-03-25T03:17:25.675Z,5.04
2019-03-25T03:18:25.695Z,5.04
2019-03-25T03:19:25.666Z,4.96
2019-03-25T03:20:25.612Z,4.99
2019-03-25T03:21:25.629Z,5.02
2019-03-25T03:22:25.586Z,4.96
2019-03-25T03:23:25.815Z,4.99
2019-03-25T03:24:25.559Z,4.96
2019-03-25T03:25:25.559Z,4.96
2019-03-25T03:26:25.539Z,5.02
2019-03-25T03:27:25.519Z,5
2019-03-25T03:28:25.507Z,5.03
2019-03-25T03:29:25.485Z,5.1
2019-03-25T03:30:25.339Z,5.09
2019-03-25T03:31:25.491Z,5.12
2019-03-25T03:32:25.492Z,5.07
2019-03-25T03:33:25.522Z,5.22
2019-03-25T03:34:25.736Z,5.22
2019-03-25T03:35:25.452Z,5.27
2019-03-25T03:36:25.387Z,5.24
2019-03-25T03:37:25.391Z,5.28
2019-03-25T03:38:25.368Z,5.24
2019-03-25T03:39:25.353Z,5.3
2019-03-25T03:40:25.088Z,5.35
2019-03-25T03:41:25.328Z,5.31
2019-03-25T03:42:25.395Z,5.25
2019-03-25T03:43:25.304Z,5.3
2019-03-25T03:44:25.280Z,5.28
2019-03-25T03:45:25.263Z,5.3
2019-03-25T03:46:25.272Z,5.31
2019-03-25T03:47:25.261Z,5.35
2019-03-25T03:48:24.976Z,5.38
2019-03-25T03:49:25.231Z,5.28
2019-03-25T03:50:25.193Z,5.31
2019-03-25T03:51:25.207Z,5.31
2019-03-25T03:52:25.166Z,5.28
2019-03-25T03:53:25.177Z,5.33
2019-03-25T03:54:25.156Z,5.3
2019-03-25T03:55:24.886Z,5.31
2019-03-25T03:56:25.115Z,5.31
2019-03-25T03:57:25.104Z,5.31
2019-03-25T03:58:25.088Z,5.31
2019-03-25T03:59:25.167Z,5.35
2019-03-25T04:00:25.066Z,5.27
2019-03-25T04:01:25.046Z,5.3
2019-03-25T04:02:25.029Z,5.3
2019-03-25T04:03:25.012Z,5.15
2019-03-25T04:04:25.005Z,5.22
2019-03-25T04:05:24.982Z,5.25
2019-03-25T04:06:24.997Z,5.18
2019-03-25T04:07:24.964Z,5.13
2019-03-25T04:08:24.939Z,5.12
2019-03-25T04:09:24.944Z,5.12
2019-03-25T04:10:24.924Z,5.13
2019-03-25T04:11:24.903Z,5.04
2019-03-25T04:12:24.898Z,5.04
2019-03-25T04:13:24.886Z,5.07
2019-03-25T04:14:24.861Z,5.04
2019-03-25T04:15:24.853Z,5.06
2019-03-25T04:16:24.833Z,5.02
2019-03-25T04:17:24.824Z,5.03
2019-03-25T04:18:24.808Z,5
2019-03-25T04:19:24.804Z,5.03
2019-03-25T04:20:24.780Z,5.04
2019-03-25T04:21:24.764Z,5.07
2019-03-25T04:22:24.756Z,5.09
2019-03-25T04:23:24.749Z,5.03
2019-03-25T04:24:24.492Z,5.13
2019-03-25T04:25:24.707Z,5.07
2019-03-25T04:26:33.549Z,5.09
2019-03-25T04:27:24.674Z,5.15
2019-03-25T04:28:24.421Z,5.13
2019-03-25T04:29:24.653Z,5.25
2019-03-25T04:30:24.718Z,5.18
2019-03-25T04:31:24.622Z,5.17
2019-03-25T04:32:24.124Z,5.17
2019-03-25T04:33:24.596Z,5.06
2019-03-25T04:34:24.576Z,5.15
2019-03-25T04:35:24.568Z,5
2019-03-25T04:36:24.549Z,5.09
2019-03-25T04:37:24.535Z,5.02
2019-03-25T04:38:24.530Z,4.97
2019-03-25T04:39:24.512Z,4.99
2019-03-25T04:40:24.505Z,4.92
2019-03-25T04:41:24.480Z,4.89
2019-03-25T04:42:24.471Z,4.88
2019-03-25T04:43:24.461Z,4.86
2019-03-25T04:44:24.435Z,4.82
2019-03-25T04:45:24.420Z,4.7
2019-03-25T04:46:24.474Z,4.82
2019-03-25T04:47:24.397Z,4.78
2019-03-25T04:48:24.379Z,4.86
2019-03-25T04:49:24.362Z,4.77
2019-03-25T04:50:24.350Z,4.78
2019-03-25T04:51:24.334Z,4.77
2019-03-25T04:52:24.318Z,4.75
2019-03-25T04:53:24.310Z,4.77
2019-03-25T04:54:24.295Z,4.77
2019-03-25T04:55:24.279Z,4.69
2019-03-25T04:56:24.300Z,4.67
2019-03-25T04:57:24.249Z,4.7
2019-03-25T04:58:24.235Z,4.66
2019-03-25T04:59:24.220Z,4.73
2019-03-25T05:00:24.207Z,4.8
2019-03-25T05:01:24.195Z,4.67
2019-03-25T05:02:24.182Z,4.7
2019-03-25T05:03:24.164Z,4.7
2019-03-25T05:04:24.152Z,4.67
2019-03-25T05:05:24.135Z,4.73
2019-03-25T05:06:24.153Z,4.69
2019-03-25T05:07:24.107Z,4.63
2019-03-25T05:08:24.093Z,4.69
2019-03-25T05:09:24.084Z,4.7
2019-03-25T05:10:23.817Z,4.7
2019-03-25T05:11:34.992Z,4.84
2019-03-25T05:12:24.036Z,4.75
2019-03-25T05:13:24.027Z,4.84
2019-03-25T05:14:24.007Z,4.91
2019-03-25T05:15:24.005Z,4.97
2019-03-25T05:16:23.983Z,5
2019-03-25T05:17:23.967Z,5.13
2019-03-25T05:18:23.964Z,5.13
2019-03-25T05:19:23.958Z,5.21
2019-03-25T05:20:23.923Z,5.33
2019-03-25T05:21:23.906Z,5.45
2019-03-25T05:22:23.903Z,5.53
2019-03-25T05:23:23.883Z,5.57
2019-03-25T05:24:23.869Z,5.58
2019-03-25T05:25:23.850Z,5.71
2019-03-25T05:26:23.850Z,5.74
2019-03-25T05:27:23.824Z,5.81
2019-03-25T05:28:23.809Z,5.83
2019-03-25T05:29:23.797Z,5.9
2019-03-25T05:30:25.410Z,6.03
2019-03-25T05:31:23.770Z,6.04
2019-03-25T05:32:23.756Z,6.12
2019-03-25T05:33:23.739Z,6.25
2019-03-25T05:34:23.728Z,6.3
2019-03-25T05:35:23.713Z,6.31
2019-03-25T05:36:23.711Z,6.38
2019-03-25T05:37:23.689Z,6.48
2019-03-25T05:38:23.681Z,6.51
2019-03-25T05:39:23.660Z,6.48
2019-03-25T05:40:23.646Z,6.56
2019-03-25T05:41:23.638Z,6.59
2019-03-25T05:42:23.623Z,6.71
2019-03-25T05:43:25.853Z,6.7
2019-03-25T05:44:23.595Z,6.69
2019-03-25T05:45:23.592Z,6.69
2019-03-25T05:46:23.567Z,6.66
2019-03-25T05:47:23.559Z,6.71
2019-03-25T05:48:23.541Z,6.7
2019-03-25T05:49:23.534Z,6.64
2019-03-25T05:50:23.520Z,6.67
2019-03-25T05:51:23.502Z,6.69
2019-03-25T05:52:23.487Z,6.71
2019-03-25T05:53:23.479Z,6.76
2019-03-25T05:54:23.466Z,6.67
2019-03-25T05:55:23.455Z,6.8
2019-03-25T05:56:23.442Z,6.8
2019-03-25T05:57:23.426Z,6.85
2019-03-25T05:58:23.420Z,6.87
2019-03-25T05:59:23.400Z,6.97
2019-03-25T06:00:23.385Z,6.95
2019-03-25T06:01:23.377Z,6.99
2019-03-25T06:02:23.362Z,6.99
2019-03-25T06:03:23.405Z,6.99
2019-03-25T06:04:23.334Z,7.13
2019-03-25T06:05:23.324Z,7.12
2019-03-25T06:06:23.311Z,7.24
2019-03-25T06:07:23.302Z,7.28
2019-03-25T06:08:23.285Z,7.27
2019-03-25T06:09:23.280Z,7.25
2019-03-25T06:10:23.259Z,7.25
2019-03-25T06:11:23.248Z,7.28
2019-03-25T06:12:23.236Z,7.32
2019-03-25T06:13:23.222Z,7.28
2019-03-25T06:14:23.216Z,7.39
2019-03-25T06:15:23.196Z,7.28
2019-03-25T06:17:23.176Z,7.27
2019-03-25T06:18:25.318Z,7.32
2019-03-25T06:21:23.126Z,7.42
2019-03-25T06:23:26.226Z,7.42
2019-03-25T06:24:23.087Z,7.45
2019-03-25T06:25:23.154Z,7.46
2019-03-25T06:26:23.059Z,7.49
2019-03-25T06:28:23.048Z,7.27
2019-03-25T06:30:23.024Z,7.31
2019-03-25T06:31:23.001Z,7.23
2019-03-25T06:34:22.972Z,7.09
2019-03-25T06:35:22.953Z,7.03
2019-03-25T06:36:22.947Z,6.89
2019-03-25T06:37:22.924Z,6.77
2019-03-25T06:38:22.919Z,6.62
2019-03-25T06:39:22.899Z,6.44
2019-03-25T06:40:22.891Z,6.31
2019-03-25T06:41:22.875Z,6.25
2019-03-25T06:42:22.622Z,6.19
2019-03-25T06:43:22.849Z,6.11
2019-03-25T06:44:22.840Z,6.14
2019-03-25T06:46:24.683Z,5.97
2019-03-25T06:47:22.557Z,5.96
2019-03-25T06:48:22.822Z,5.91
2019-03-25T06:51:22.751Z,5.75
2019-03-25T06:52:22.731Z,5.67
2019-03-25T06:53:22.720Z,5.67
2019-03-25T06:54:22.711Z,5.56
2019-03-25T06:55:22.697Z,5.57
2019-03-25T06:57:30.511Z,5.58
2019-03-25T06:58:22.658Z,5.58
2019-03-25T06:59:22.638Z,5.51
2019-03-25T07:00:22.629Z,5.58
2019-03-25T07:01:22.614Z,5.58
2019-03-25T07:03:22.587Z,5.58
2019-03-25T07:04:26.304Z,5.58
2019-03-25T07:05:23.873Z,5.6
2019-03-25T07:06:22.545Z,5.54
2019-03-25T07:07:22.280Z,5.6
2019-03-25T07:08:22.519Z,5.67
2019-03-25T07:11:24.995Z,5.58
2019-03-25T07:12:22.222Z,5.67
2019-03-25T07:13:22.446Z,5.57
2019-03-25T07:14:22.433Z,5.61
2019-03-25T07:15:22.426Z,5.54
2019-03-25T07:16:22.412Z,5.54
2019-03-25T07:17:22.143Z,5.46
2019-03-25T07:18:22.388Z,5.57
2019-03-25T07:19:24.886Z,5.53
2019-03-25T07:22:23.535Z,5.39
2019-03-25T07:24:22.299Z,5.31
2019-03-25T07:26:22.268Z,5.33
2019-03-25T07:27:22.277Z,5.25
2019-03-25T07:28:22.246Z,5.2
2019-03-25T07:29:22.237Z,5.1
2019-03-25T07:30:22.216Z,5.15
2019-03-25T07:31:22.205Z,5.04
2019-03-25T07:32:22.191Z,5
2019-03-25T07:33:22.170Z,4.99
2019-03-25T07:34:22.204Z,4.96
2019-03-25T07:35:24.601Z,4.91
2019-03-25T07:36:22.134Z,4.91
2019-03-25T07:37:23.657Z,4.92
2019-03-25T07:38:22.110Z,4.96
2019-03-25T07:39:22.094Z,5
2019-03-25T07:40:22.130Z,4.99
2019-03-25T07:41:22.059Z,4.91
2019-03-25T07:42:22.074Z,4.94
2019-03-25T07:43:22.033Z,4.89
2019-03-25T07:44:22.020Z,4.8
2019-03-25T07:45:22.001Z,4.86
2019-03-25T07:46:21.990Z,4.86
2019-03-25T07:47:21.974Z,4.8
2019-03-25T07:48:21.960Z,4.91
2019-03-25T07:49:21.948Z,4.92
2019-03-25T07:50:21.932Z,4.96
2019-03-25T07:51:21.917Z,5.06
2019-03-25T07:52:21.912Z,5.04
2019-03-25T07:53:21.914Z,5.09
2019-03-25T07:54:21.913Z,5.24
2019-03-25T07:55:21.891Z,5.3
2019-03-25T07:56:21.870Z,5.28
2019-03-25T07:57:21.910Z,5.33
2019-03-25T07:58:21.852Z,5.31
2019-03-25T07:59:24.828Z,5.38
2019-03-25T08:00:21.842Z,5.49
2019-03-25T08:01:21.796Z,5.46
2019-03-25T08:02:21.824Z,5.53
2019-03-25T08:03:21.815Z,5.57
2019-03-25T08:04:21.777Z,5.65
2019-03-25T08:05:21.757Z,5.76
2019-03-25T08:06:21.748Z,5.83
2019-03-25T08:07:21.718Z,5.89
2019-03-25T08:08:21.721Z,5.86
2019-03-25T08:09:21.722Z,5.96
2019-03-25T08:10:21.674Z,6
2019-03-25T08:11:21.672Z,6.04
2019-03-25T08:12:21.735Z,6.03
2019-03-25T08:13:21.924Z,6.12
2019-03-25T08:14:21.640Z,6.09
2019-03-25T08:15:21.625Z,6.14
2019-03-25T08:16:21.623Z,6.11
2019-03-25T08:17:21.324Z,6.17
2019-03-25T08:18:21.551Z,6.25
2019-03-25T08:19:21.544Z,6.21
2019-03-25T08:20:21.525Z,6.19
2019-03-25T08:21:21.520Z,6.21
2019-03-25T08:22:21.502Z,6.41
2019-03-25T08:23:21.490Z,6.4
2019-03-25T08:24:21.530Z,6.46
2019-03-25T08:25:21.462Z,6.44
2019-03-25T08:26:21.456Z,6.52
2019-03-25T08:27:21.447Z,6.49
2019-03-25T08:28:21.422Z,6.54
2019-03-25T08:29:21.410Z,6.56
2019-03-25T08:30:21.411Z,6.62
2019-03-25T08:31:21.383Z,6.71
2019-03-25T08:32:21.370Z,6.74
2019-03-25T08:33:21.374Z,6.85
2019-03-25T08:34:21.350Z,6.91
2019-03-25T08:35:21.358Z,6.94
2019-03-25T08:36:21.326Z,6.94
2019-03-25T08:37:21.308Z,7.1
2019-03-25T08:38:21.301Z,7.17
2019-03-25T08:39:21.289Z,7.09
2019-03-25T08:40:21.272Z,7.16
2019-03-25T08:41:21.259Z,7.17
2019-03-25T08:42:21.243Z,7.17
2019-03-25T08:43:21.235Z,7.3
2019-03-25T08:44:21.227Z,7.27
2019-03-25T08:45:21.211Z,7.4
2019-03-25T08:46:21.195Z,7.53
2019-03-25T08:47:21.181Z,7.52
2019-03-25T08:48:21.170Z,7.58
2019-03-25T08:49:21.160Z,7.71
2019-03-25T08:50:21.152Z,7.79
2019-03-25T08:51:21.135Z,7.72
2019-03-25T08:52:21.125Z,7.71
2019-03-25T08:53:21.112Z,7.72
2019-03-25T08:54:21.098Z,7.74
2019-03-25T08:55:21.102Z,7.71
2019-03-25T08:56:21.080Z,7.83
2019-03-25T08:57:21.064Z,7.77
2019-03-25T08:58:21.060Z,7.74
2019-03-25T08:59:21.045Z,7.87
2019-03-25T09:00:21.069Z,7.87
2019-03-25T09:01:21.015Z,7.89
2019-03-25T09:02:21.006Z,7.98
2019-03-25T09:03:20.996Z,8.05
2019-03-25T09:04:21.025Z,8.04
2019-03-25T09:05:20.973Z,8.02
2019-03-25T09:06:20.959Z,8
2019-03-25T09:07:20.963Z,7.98
2019-03-25T09:08:20.695Z,8
2019-03-25T09:09:20.932Z,8.01
2019-03-25T09:10:20.914Z,8
2019-03-25T09:11:20.902Z,8.01
2019-03-25T09:12:20.891Z,8.05
2019-03-25T09:13:20.880Z,8.04
2019-03-25T09:14:20.867Z,8
2019-03-25T09:15:20.852Z,7.87
2019-03-25T09:16:20.848Z,7.83
2019-03-25T09:17:20.581Z,7.87
2019-03-25T09:18:20.821Z,8.04
2019-03-25T09:19:20.812Z,8.01
2019-03-25T09:20:20.831Z,8.01
2019-03-25T09:21:20.786Z,8.15
2019-03-25T09:22:20.777Z,8.11
2019-03-25T09:23:20.758Z,8.33
2019-03-25T09:24:20.759Z,8.3
2019-03-25T09:25:20.740Z,8.33
2019-03-25T09:26:20.477Z,8.37
2019-03-25T09:27:20.760Z,8.5
2019-03-25T09:28:29.009Z,8.48
2019-03-25T09:29:20.697Z,8.66
2019-03-25T09:30:20.679Z,8.71
2019-03-25T09:31:20.673Z,8.8
2019-03-25T09:32:20.658Z,8.81
2019-03-25T09:33:20.651Z,8.86
2019-03-25T09:34:20.642Z,8.81
2019-03-25T09:35:20.622Z,8.98
2019-03-25T09:36:20.615Z,8.99
2019-03-25T09:37:20.627Z,8.96
2019-03-25T09:38:20.598Z,9.08
2019-03-25T09:39:20.581Z,9.15
2019-03-25T09:40:20.568Z,9.18
2019-03-25T09:41:20.333Z,9.26
2019-03-25T09:42:20.552Z,9.32
2019-03-25T09:43:20.534Z,9.39
2019-03-25T09:44:20.530Z,9.47
2019-03-25T09:45:20.525Z,9.56
2019-03-25T09:46:20.507Z,9.69
2019-03-25T09:47:20.497Z,9.84
2019-03-25T09:48:20.492Z,9.99
2019-03-25T09:49:20.474Z,9.99
2019-03-25T09:50:20.463Z,10.15
2019-03-25T09:51:20.456Z,10.17
2019-03-25T09:53:20.432Z,10.41
2019-03-25T09:54:20.423Z,10.45
2019-03-25T09:56:20.408Z,10.55
2019-03-25T09:57:22.032Z,10.7
2019-03-25T09:58:20.412Z,10.7
2019-03-25T09:59:20.376Z,10.85
2019-03-25T10:00:20.371Z,10.92
2019-03-25T10:01:20.368Z,10.99
2019-03-25T10:02:20.359Z,11.15
2019-03-25T10:03:20.338Z,11.15
2019-03-25T10:04:22.557Z,11.32
2019-03-25T10:05:20.319Z,11.32
2019-03-25T10:06:20.103Z,11.39
2019-03-25T10:07:20.301Z,11.57
2019-03-25T10:08:20.292Z,11.65
2019-03-25T10:09:20.286Z,11.78
2019-03-25T10:10:20.298Z,11.9
2019-03-25T10:11:20.271Z,11.95
2019-03-25T10:12:20.258Z,11.94
2019-03-25T10:13:20.259Z,11.83
2019-03-25T10:14:20.250Z,11.82
2019-03-25T10:15:20.233Z,11.91
2019-03-25T10:16:20.228Z,12.04
2019-03-25T10:17:20.216Z,12.21
2019-03-25T10:18:20.210Z,12.21
2019-03-25T10:19:20.221Z,12.35
2019-03-25T10:20:20.193Z,12.47
2019-03-25T10:21:20.189Z,12.6
2019-03-25T10:22:20.182Z,12.72
2019-03-25T10:23:20.173Z,12.77
2019-03-25T10:24:27.520Z,12.93
2019-03-25T10:25:20.159Z,12.97
2019-03-25T10:26:20.149Z,12.95
2019-03-25T10:28:20.134Z,12.79
2019-03-25T10:29:20.129Z,12.79
2019-03-25T10:30:20.119Z,12.68
2019-03-25T10:32:20.104Z,12.24
2019-03-25T10:33:19.848Z,12.2
2019-03-25T10:34:20.091Z,12.01
2019-03-25T10:35:20.082Z,11.83
2019-03-25T10:36:20.083Z,11.72
2019-03-25T10:37:19.819Z,11.72
2019-03-25T10:38:24.630Z,11.85
2019-03-25T10:39:20.066Z,11.98
2019-03-25T10:40:20.050Z,12.13
2019-03-25T10:41:20.035Z,12.14
2019-03-25T10:42:19.779Z,12.31
2019-03-25T10:43:20.024Z,12.49
2019-03-25T10:44:20.014Z,12.54
2019-03-25T10:45:20.012Z,12.65
2019-03-25T10:46:20.067Z,12.87
2019-03-25T10:47:19.743Z,13.03
2019-03-25T10:48:19.987Z,13.03
2019-03-25T10:49:21.222Z,13
2019-03-25T10:50:19.970Z,12.86
2019-03-25T10:51:19.966Z,12.67
2019-03-25T10:52:19.704Z,12.53
2019-03-25T10:53:19.991Z,12.47
2019-03-25T10:54:20.088Z,12.29
2019-03-25T10:55:19.951Z,12.09
2019-03-25T10:56:19.675Z,11.95
2019-03-25T10:57:19.916Z,11.7
2019-03-25T10:58:19.911Z,11.51
2019-03-25T10:59:19.900Z,11.39
2019-03-25T11:00:19.903Z,11.42
2019-03-25T11:01:19.900Z,11.39
2019-03-25T11:02:19.633Z,11.49
2019-03-25T11:03:19.869Z,11.67
2019-03-25T11:04:19.860Z,11.82
2019-03-25T11:05:19.853Z,12.01
2019-03-25T11:06:19.885Z,12.21
2019-03-25T11:07:20.017Z,12.45
2019-03-25T11:08:19.844Z,12.65
2019-03-25T11:09:19.575Z,12.75
2019-03-25T11:10:19.816Z,12.85
2019-03-25T11:11:19.809Z,12.87
2019-03-25T11:12:19.557Z,12.87
2019-03-25T11:13:19.798Z,12.96
2019-03-25T11:14:19.786Z,13.07
2019-03-25T11:15:19.781Z,13.03
2019-03-25T11:16:19.775Z,13.08
2019-03-25T11:17:19.763Z,13.11
2019-03-25T11:18:19.756Z,13.19
2019-03-25T11:19:19.747Z,13.22
2019-03-25T11:20:19.738Z,13.26
2019-03-25T11:21:19.736Z,13.26
2019-03-25T11:22:19.726Z,13.22
2019-03-25T11:23:19.719Z,13.19
2019-03-25T11:24:20.042Z,13.19
2019-03-25T11:25:19.707Z,13.28
2019-03-25T11:26:19.699Z,13.36
2019-03-25T11:27:19.690Z,13.44
2019-03-25T11:28:19.683Z,13.48
2019-03-25T11:29:19.681Z,13.54
2019-03-25T11:30:19.674Z,13.67
2019-03-25T11:31:19.665Z,13.7
2019-03-25T11:32:19.662Z,13.85
2019-03-25T11:33:19.658Z,13.89
2019-03-25T11:34:19.646Z,14.04
2019-03-25T11:35:19.647Z,14.18
2019-03-25T11:36:19.387Z,14.15
2019-03-25T11:37:19.625Z,14.21
2019-03-25T11:38:19.617Z,14.35
2019-03-25T11:39:19.617Z,14.35
2019-03-25T11:40:19.608Z,14.42
2019-03-25T11:41:19.636Z,14.4
2019-03-25T11:42:19.594Z,14.62
2019-03-25T11:43:19.592Z,14.65
2019-03-25T11:44:19.582Z,14.62
2019-03-25T11:45:19.579Z,14.68
2019-03-25T11:46:19.573Z,14.6
2019-03-25T11:47:19.566Z,14.54
2019-03-25T11:48:19.560Z,14.52
2019-03-25T11:49:19.553Z,14.35
2019-03-25T11:50:19.545Z,14.28
2019-03-25T11:51:19.547Z,14.29
2019-03-25T11:52:19.538Z,14.28
2019-03-25T11:53:19.531Z,14.17
2019-03-25T11:54:19.527Z,14.12
2019-03-25T11:55:20.293Z,14.04
2019-03-25T11:56:19.266Z,14.03
2019-03-25T11:57:19.502Z,13.88
2019-03-25T11:58:19.500Z,13.85
2019-03-25T11:59:23.685Z,13.73
2019-03-25T12:00:19.487Z,13.67
2019-03-25T12:01:19.233Z,13.63
2019-03-25T12:02:22.649Z,13.57
2019-03-25T12:03:19.468Z,13.23
2019-03-25T12:04:19.459Z,13.17
2019-03-25T12:05:19.460Z,13.03
2019-03-25T12:06:19.446Z,12.75
2019-03-25T12:07:19.441Z,12.52
2019-03-25T12:08:19.450Z,12.46
2019-03-25T12:09:19.430Z,12.19
2019-03-25T12:10:19.421Z,11.99
2019-03-25T12:11:19.412Z,11.8
2019-03-25T12:12:19.405Z,11.61
2019-03-25T12:13:19.406Z,11.6
2019-03-25T12:14:19.412Z,11.39
2019-03-25T12:15:19.385Z,11.22
2019-03-25T12:16:19.376Z,11.36
2019-03-25T12:17:19.371Z,11.22
2019-03-25T12:18:19.380Z,11.18
2019-03-25T12:19:19.353Z,11.17
2019-03-25T12:20:19.344Z,11.06
2019-03-25T12:21:19.335Z,11.03
2019-03-25T12:22:19.329Z,10.78
2019-03-25T12:23:28.672Z,10.7
2019-03-25T12:24:19.311Z,10.7
2019-03-25T12:25:19.302Z,10.73
2019-03-25T12:26:19.297Z,10.71
2019-03-25T12:27:19.437Z,10.7
2019-03-25T12:28:20.682Z,10.74
2019-03-25T12:29:29.535Z,10.82
2019-03-25T12:30:19.260Z,10.73
2019-03-25T12:31:19.248Z,10.82
2019-03-25T12:32:19.244Z,10.85
2019-03-25T12:33:19.231Z,10.85
2019-03-25T12:34:19.570Z,10.89
2019-03-25T12:35:19.223Z,10.86
2019-03-25T12:36:19.209Z,10.99
2019-03-25T12:37:19.196Z,11.11
2019-03-25T12:38:19.186Z,11.19
2019-03-25T12:39:19.177Z,11.27
2019-03-25T12:40:19.166Z,11.29
2019-03-25T12:41:19.158Z,11.47
2019-03-25T12:42:19.158Z,11.65
2019-03-25T12:43:19.140Z,11.88
2019-03-25T12:44:18.882Z,12.01
2019-03-25T12:45:19.121Z,12.07
2019-03-25T12:46:19.125Z,12.2
2019-03-25T12:47:19.107Z,12.41
2019-03-25T12:48:19.096Z,12.57
2019-03-25T12:49:19.088Z,12.62
2019-03-25T12:50:19.087Z,12.65
2019-03-25T12:51:19.070Z,12.77
2019-03-25T12:52:19.065Z,12.9
2019-03-25T12:53:19.059Z,12.82
2019-03-25T12:54:19.050Z,13.01
2019-03-25T12:55:19.037Z,12.97
2019-03-25T12:56:19.048Z,12.82
2019-03-25T12:57:19.027Z,12.75
2019-03-25T12:58:19.017Z,12.75
2019-03-25T12:59:19.011Z,12.74
2019-03-25T13:00:19.001Z,12.68
2019-03-25T13:01:18.994Z,12.62
2019-03-25T13:02:18.985Z,12.52
2019-03-25T13:03:18.977Z,12.29
2019-03-25T13:04:18.967Z,12.23
2019-03-25T13:05:18.966Z,12.13
2019-03-25T13:06:18.954Z,11.99
2019-03-25T13:07:18.943Z,11.86
2019-03-25T13:08:18.937Z,11.69
2019-03-25T13:09:18.926Z,11.52
2019-03-25T13:10:19.219Z,11.49
2019-03-25T13:11:18.909Z,11.39
2019-03-25T13:12:18.901Z,11.36
2019-03-25T13:13:18.898Z,11.32
2019-03-25T13:14:18.884Z,11.35
2019-03-25T13:15:18.876Z,11.32
2019-03-25T13:16:18.868Z,11.24
2019-03-25T13:17:18.623Z,11.19
2019-03-25T13:18:18.851Z,11.15
2019-03-25T13:19:18.848Z,11.07
2019-03-25T13:20:18.835Z,11.06
2019-03-25T13:21:18.827Z,10.89
2019-03-25T13:22:18.814Z,11.06
2019-03-25T13:23:18.812Z,10.85
2019-03-25T13:24:18.794Z,10.84
2019-03-25T13:25:18.538Z,10.84
2019-03-25T13:26:18.777Z,10.81
2019-03-25T13:27:18.772Z,10.71
2019-03-25T13:28:18.765Z,10.68
2019-03-25T13:29:18.757Z,10.63
2019-03-25T13:30:18.744Z,10.67
2019-03-25T13:31:18.739Z,10.61
2019-03-25T13:32:18.476Z,10.64
2019-03-25T13:33:18.714Z,10.66
2019-03-25T13:34:18.707Z,10.74
2019-03-25T13:35:18.696Z,10.79
2019-03-25T13:36:18.686Z,10.82
2019-03-25T13:37:18.680Z,10.81
2019-03-25T13:38:18.668Z,10.91
2019-03-25T13:39:18.658Z,10.89
2019-03-25T13:40:18.651Z,10.89
2019-03-25T13:41:18.401Z,10.91
2019-03-25T13:42:18.626Z,10.92
2019-03-25T13:43:18.617Z,10.86